createdAt,value
2022-09-23T00:01:46.615Z,100215.31
2022-09-23T00:04:15.390Z,100230.94
2022-09-23T00:06:45.244Z,100246.78
2022-09-23T00:09:13.984Z,100247.19
2022-09-23T00:11:42.792Z,100240.38
2022-09-23T00:14:11.724Z,100250.34
2022-09-23T00:16:42.303Z,100239.94
2022-09-23T00:19:11.065Z,100220.31
2022-09-23T00:21:40.383Z,100226.91
2022-09-23T00:24:09.520Z,100249.03
2022-09-23T00:26:38.256Z,100245.00
2022-09-23T00:29:07.142Z,100232.94
2022-09-23T00:31:35.966Z,100234.03
2022-09-23T00:34:06.113Z,100228.13
2022-09-23T00:36:35.447Z,100231.09
2022-09-23T00:39:04.769Z,100217.03
2022-09-23T00:41:34.084Z,100161.41
2022-09-23T00:44:03.605Z,100229.22
2022-09-23T00:46:38.043Z,100227.91
2022-09-23T00:49:14.015Z,100213.25
2022-09-23T00:51:47.807Z,100198.44
2022-09-23T00:54:19.200Z,100221.66
2022-09-23T00:56:47.882Z,100230.66
2022-09-23T00:59:16.994Z,100229.19
2022-09-23T01:01:46.994Z,100222.69
2022-09-23T01:04:17.523Z,100216.63
2022-09-23T01:06:46.412Z,100188.97
2022-09-23T01:09:15.148Z,100223.19
2022-09-23T01:11:53.462Z,100202.53
2022-09-23T01:14:38.096Z,100148.53
2022-09-23T01:17:14.742Z,100161.44
2022-09-23T01:20:06.935Z,100222.03
2022-09-23T01:22:44.424Z,100218.03
2022-09-23T01:25:34.727Z,100218.78
2022-09-23T01:28:19.236Z,100211.72
2022-09-23T01:30:58.873Z,100221.50
2022-09-23T01:33:39.841Z,100215.84
2022-09-23T01:36:16.631Z,100224.13
2022-09-23T01:38:59.199Z,100217.97
2022-09-23T01:41:47.473Z,100222.19
2022-09-23T01:44:23.172Z,100200.25
2022-09-23T01:46:56.669Z,100201.88
2022-09-23T01:49:30.391Z,100219.47
2022-09-23T01:52:05.464Z,100190.91
2022-09-23T01:54:39.991Z,100211.03
2022-09-23T01:57:13.858Z,100213.88
2022-09-23T01:59:48.679Z,100206.44
2022-09-23T02:02:26.692Z,100136.25
2022-09-23T02:05:01.966Z,100184.44
2022-09-23T02:07:36.183Z,100198.38
2022-09-23T02:10:11.562Z,100141.56
2022-09-23T02:12:45.935Z,100211.03
2022-09-23T02:15:18.771Z,100197.94
2022-09-23T02:17:52.077Z,100208.97
2022-09-23T02:20:25.874Z,100207.00
2022-09-23T02:23:01.645Z,100203.88
2022-09-23T02:25:38.518Z,100202.00
2022-09-23T02:28:13.377Z,100198.88
2022-09-23T02:30:50.199Z,100174.13
2022-09-23T02:33:25.544Z,100194.97
2022-09-23T02:36:01.294Z,100181.41
2022-09-23T02:38:36.226Z,100196.56
2022-09-23T02:41:11.310Z,100193.56
2022-09-23T02:43:47.535Z,100194.31
2022-09-23T02:46:16.804Z,100188.88
2022-09-23T02:48:51.416Z,100179.53
2022-09-23T02:51:20.405Z,100195.31
2022-09-23T02:53:49.241Z,100196.00
2022-09-23T02:56:20.421Z,100199.56
2022-09-23T02:58:50.325Z,100206.00
2022-09-23T03:01:32.621Z,100200.91
2022-09-23T03:04:15.024Z,100182.69
2022-09-23T03:06:54.445Z,100199.56
2022-09-23T03:09:29.199Z,100190.50
2022-09-23T03:12:09.113Z,100193.38
2022-09-23T03:14:44.827Z,100194.88
2022-09-23T03:17:20.141Z,100186.91
2022-09-23T03:19:54.934Z,100200.31
2022-09-23T03:22:30.704Z,100181.34
2022-09-23T03:25:03.682Z,100191.88
2022-09-23T03:27:35.944Z,100180.09
2022-09-23T03:30:06.581Z,100193.56
2022-09-23T03:32:38.459Z,100210.38
2022-09-23T03:35:10.018Z,100199.19
2022-09-23T03:37:45.264Z,100188.50
2022-09-23T03:40:19.500Z,100199.00
2022-09-23T03:42:49.215Z,100195.13
2022-09-23T03:45:22.686Z,100147.47
2022-09-23T03:47:51.713Z,100192.28
2022-09-23T03:50:22.363Z,100201.88
2022-09-23T03:52:51.612Z,100193.84
2022-09-23T03:55:21.690Z,100191.16
2022-09-23T03:57:50.507Z,100170.13
2022-09-23T04:00:19.298Z,100197.44
2022-09-23T04:02:49.949Z,100204.81
2022-09-23T04:05:19.200Z,100190.97
2022-09-23T04:07:50.937Z,100197.84
2022-09-23T04:10:20.012Z,100204.06
2022-09-23T04:12:48.853Z,100192.88
2022-09-23T04:15:17.833Z,100202.59
2022-09-23T04:17:46.623Z,100209.03
2022-09-23T04:20:16.264Z,100209.47
2022-09-23T04:22:46.868Z,100202.53
2022-09-23T04:25:17.239Z,100205.41
2022-09-23T04:27:46.119Z,100193.03
2022-09-23T04:30:24.939Z,100199.81
2022-09-23T04:32:53.806Z,100203.06
2022-09-23T04:35:22.936Z,100174.47
2022-09-23T04:37:52.497Z,100201.91
2022-09-23T04:40:22.798Z,100201.78
2022-09-23T04:42:52.049Z,100199.34
2022-09-23T04:45:20.813Z,100199.81
2022-09-23T04:47:49.559Z,100201.16
2022-09-23T04:50:18.500Z,100200.63
2022-09-23T04:52:47.301Z,100210.81
2022-09-23T04:55:16.586Z,100216.66
2022-09-23T04:57:46.891Z,100201.97
2022-09-23T05:00:16.481Z,100214.78
2022-09-23T05:02:46.340Z,100187.69
2022-09-23T05:05:21.323Z,100215.03
2022-09-23T05:07:51.022Z,100212.91
2022-09-23T05:10:20.141Z,100205.84
2022-09-23T05:12:56.316Z,100212.13
2022-09-23T05:15:26.634Z,100216.16
2022-09-23T05:17:58.736Z,100209.78
2022-09-23T05:20:27.626Z,100212.09
2022-09-23T05:22:57.125Z,100209.25
2022-09-23T05:25:26.042Z,100196.94
2022-09-23T05:27:56.447Z,100114.09
2022-09-23T05:30:25.560Z,100205.53
2022-09-23T05:32:54.440Z,100203.44
2022-09-23T05:35:23.534Z,100200.31
2022-09-23T05:37:52.861Z,100205.84
2022-09-23T05:40:22.308Z,100186.72
2022-09-23T05:42:51.868Z,100206.59
2022-09-23T05:45:22.106Z,100204.44
2022-09-23T05:47:51.155Z,100198.66
2022-09-23T05:50:23.550Z,100188.31
2022-09-23T05:52:53.054Z,100204.66
2022-09-23T05:55:24.902Z,100207.66
2022-09-23T06:01:15.090Z,100201.19
2022-09-23T06:03:47.799Z,100197.94
2022-09-23T06:06:20.419Z,100210.28
2022-09-23T06:08:50.028Z,100209.84
2022-09-23T06:11:21.660Z,100207.50
2022-09-23T06:13:52.601Z,100169.19
2022-09-23T06:16:22.917Z,100210.91
2022-09-23T06:18:51.743Z,100207.34
2022-09-23T06:21:20.908Z,100221.94
2022-09-23T06:23:53.101Z,100212.63
2022-09-23T06:26:23.338Z,100154.81
2022-09-23T06:28:52.176Z,100192.78
2022-09-23T06:31:22.461Z,100220.69
2022-09-23T06:34:01.879Z,100223.06
2022-09-23T06:36:43.410Z,100221.09
2022-09-23T06:39:15.062Z,100211.97
2022-09-23T06:41:44.817Z,100232.25
2022-09-23T06:44:17.201Z,100222.25
2022-09-23T06:46:47.825Z,100195.19
2022-09-23T06:49:16.805Z,100221.19
2022-09-23T06:51:48.441Z,100221.53
2022-09-23T06:54:18.167Z,100201.97
2022-09-23T06:56:47.583Z,100219.00
2022-09-23T06:59:18.450Z,100218.19
2022-09-23T07:01:50.803Z,100226.38
2022-09-23T07:04:20.253Z,100224.38
2022-09-23T07:06:49.016Z,100206.59
2022-09-23T07:09:18.304Z,100226.03
2022-09-23T07:11:48.542Z,100217.00
2022-09-23T07:14:17.473Z,100208.19
2022-09-23T07:16:53.470Z,100211.22
2022-09-23T07:19:22.380Z,100218.59
2022-09-23T07:21:51.137Z,100160.25
2022-09-23T07:24:20.063Z,100200.28
2022-09-23T07:26:49.022Z,100208.59
2022-09-23T07:29:17.845Z,100211.38
2022-09-23T07:31:46.780Z,100171.94
2022-09-23T07:34:17.040Z,100174.91
2022-09-23T07:36:45.778Z,100197.03
2022-09-23T07:39:14.699Z,100202.97
2022-09-23T07:41:44.798Z,100199.44
2022-09-23T07:44:13.812Z,100182.09
2022-09-23T07:46:42.975Z,100182.66
2022-09-23T07:49:12.005Z,100208.59
2022-09-23T07:51:46.372Z,100200.41
2022-09-23T07:55:20.723Z,100142.47
2022-09-23T07:57:50.822Z,100190.84
2022-09-23T08:00:37.184Z,100195.78
2022-09-23T08:03:28.388Z,100193.25
2022-09-23T08:06:05.671Z,100186.97
2022-09-23T08:08:39.548Z,100193.97
2022-09-23T08:11:11.138Z,100182.81
2022-09-23T08:13:43.864Z,100198.53
2022-09-23T08:16:13.786Z,100169.84
2022-09-23T08:18:46.209Z,100194.44
2022-09-23T08:21:20.626Z,100200.28
2022-09-23T08:23:51.839Z,100191.91
2022-09-23T08:26:23.420Z,100203.16
2022-09-23T08:28:54.714Z,100188.56
2022-09-23T08:31:24.678Z,100205.06
2022-09-23T08:33:56.847Z,100193.34
2022-09-23T08:36:31.115Z,100203.25
2022-09-23T08:39:04.539Z,100206.78
2022-09-23T08:41:41.700Z,100199.56
2022-09-23T08:44:20.787Z,100198.13
2022-09-23T08:46:56.998Z,100190.47
2022-09-23T08:49:33.777Z,100201.19
2022-09-23T08:52:09.305Z,100188.38
2022-09-23T08:54:39.695Z,100176.81
2022-09-23T08:57:17.787Z,100197.19
2022-09-23T08:59:47.648Z,100192.72
2022-09-23T09:02:20.601Z,100188.63
2022-09-23T09:04:53.966Z,100185.72
2022-09-23T09:07:36.614Z,100187.44
2022-09-23T09:10:16.503Z,100184.75
2022-09-23T09:12:47.505Z,100186.28
2022-09-23T09:15:21.241Z,100186.16
2022-09-23T09:18:01.314Z,100186.47
2022-09-23T09:20:39.884Z,100186.47
2022-09-23T09:23:21.900Z,100193.00
2022-09-23T09:25:54.273Z,100187.25
2022-09-23T09:28:31.042Z,100190.25
2022-09-23T09:31:02.858Z,100184.97
2022-09-23T09:33:40.410Z,100192.75
2022-09-23T09:36:21.101Z,100187.06
2022-09-23T09:38:51.162Z,100186.44
2022-09-23T09:41:24.745Z,100161.38
2022-09-23T09:43:57.807Z,100154.56
2022-09-23T09:46:51.803Z,100137.97
2022-09-23T09:49:27.977Z,100178.31
2022-09-23T09:52:22.719Z,100143.91
2022-09-23T09:54:52.152Z,100173.16
2022-09-23T09:57:35.057Z,100156.19
2022-09-23T10:00:37.281Z,100155.03
2022-09-23T10:03:25.361Z,100167.81
2022-09-23T10:05:56.852Z,100167.69
2022-09-23T10:08:29.379Z,100174.09
2022-09-23T10:11:03.543Z,100154.25
2022-09-23T10:13:34.069Z,100158.00
2022-09-23T10:16:07.178Z,100156.84
2022-09-23T10:18:51.159Z,100176.19
2022-09-23T10:21:27.732Z,100164.16
2022-09-23T10:24:01.043Z,100136.38
2022-09-23T10:26:32.484Z,100167.47
2022-09-23T10:29:12.245Z,100165.59
2022-09-23T10:31:41.407Z,100168.06
2022-09-23T10:34:25.952Z,100157.59
2022-09-23T10:36:56.656Z,100147.91
2022-09-23T10:39:43.351Z,100145.13
2022-09-23T10:42:40.404Z,100160.94
2022-09-23T10:45:39.780Z,100160.38
2022-09-23T10:48:23.087Z,100159.91
2022-09-23T10:50:54.487Z,100138.25
2022-09-23T10:53:35.047Z,100163.28
2022-09-23T10:56:16.885Z,100159.22
2022-09-23T10:59:30.487Z,100143.25
2022-09-23T11:02:18.062Z,100092.56
2022-09-23T11:05:22.461Z,100155.78
2022-09-23T11:07:57.067Z,100151.94
2022-09-23T11:10:54.475Z,100150.03
2022-09-23T11:13:41.396Z,100150.97
2022-09-23T11:16:22.709Z,100113.81
2022-09-23T11:19:32.441Z,100151.94
2022-09-23T11:22:16.320Z,100134.81
2022-09-23T11:24:58.585Z,100158.31
2022-09-23T11:27:46.499Z,100152.47
2022-09-23T11:30:20.054Z,100157.22
2022-09-23T11:33:29.730Z,100147.56
2022-09-23T11:36:05.047Z,100153.13
2022-09-23T11:38:41.266Z,100131.88
2022-09-23T11:41:19.598Z,100141.59
2022-09-23T11:43:53.992Z,100134.88
2022-09-23T11:46:32.401Z,100144.91
2022-09-23T11:49:09.573Z,100137.31
2022-09-23T11:51:50.972Z,100137.09
2022-09-23T11:54:24.499Z,100131.53
2022-09-23T11:56:57.942Z,100128.78
2022-09-23T11:59:40.737Z,100127.56
2022-09-23T12:02:25.626Z,100084.56
2022-09-23T12:05:03.721Z,100122.25
2022-09-23T12:07:51.633Z,100131.03
2022-09-23T12:10:22.517Z,100128.72
2022-09-23T12:13:00.833Z,100124.56
2022-09-23T12:15:43.142Z,100119.50
2022-09-23T12:18:38.437Z,100116.75
2022-09-23T12:21:49.835Z,100109.44
2022-09-23T12:24:47.354Z,100117.69
2022-09-23T12:27:29.156Z,100126.94
2022-09-23T12:30:03.231Z,100123.16
2022-09-23T12:32:33.433Z,100120.09
2022-09-23T12:35:02.861Z,100052.63
2022-09-23T12:37:37.365Z,100104.09
2022-09-23T12:40:20.229Z,100121.13
2022-09-23T12:42:50.986Z,100125.09
2022-09-23T12:45:40.180Z,100134.41
2022-09-23T12:48:44.208Z,100138.91
2022-09-23T12:51:19.195Z,100126.78
2022-09-23T12:53:57.853Z,100104.41
2022-09-23T12:57:10.399Z,100119.06
2022-09-23T12:59:58.753Z,100139.09
2022-09-23T13:02:40.895Z,100130.88
2022-09-23T13:05:38.227Z,100132.34
2022-09-23T13:08:13.314Z,100132.41
2022-09-23T13:10:49.518Z,100075.72
2022-09-23T13:13:26.151Z,100097.25
2022-09-23T13:15:55.621Z,100116.13
2022-09-23T13:18:46.618Z,100110.41
2022-09-23T13:21:39.920Z,100121.56
2022-09-23T13:24:21.921Z,100091.09
2022-09-23T13:26:53.911Z,100077.31
2022-09-23T13:29:27.138Z,100116.75
2022-09-23T13:31:58.408Z,100117.91
2022-09-23T13:34:32.539Z,100119.22
2022-09-23T13:37:22.240Z,100112.84
2022-09-23T13:39:53.166Z,100119.47
2022-09-23T13:42:28.209Z,100124.75
2022-09-23T13:45:00.497Z,100125.53
2022-09-23T13:47:32.319Z,100124.59
2022-09-23T13:50:01.847Z,100121.63
2022-09-23T13:52:32.862Z,100124.28
2022-09-23T13:55:03.081Z,100122.25
2022-09-23T13:57:34.149Z,100122.25
2022-09-23T14:00:17.278Z,100116.38
2022-09-23T14:02:47.071Z,100091.28
2022-09-23T14:05:24.866Z,100113.44
2022-09-23T14:07:55.575Z,100120.50
2022-09-23T14:10:27.713Z,100112.47
2022-09-23T14:12:59.581Z,100124.03
2022-09-23T14:15:30.846Z,100106.81
2022-09-23T14:18:04.703Z,100124.59
2022-09-23T14:20:34.402Z,100119.53
2022-09-23T14:23:14.128Z,100134.31
2022-09-23T14:25:45.973Z,100112.59
2022-09-23T14:28:20.220Z,100127.66
2022-09-23T14:30:51.946Z,100123.44
2022-09-23T14:33:26.695Z,100127.13
2022-09-23T14:36:02.853Z,100129.94
2022-09-23T14:38:50.581Z,100133.03
2022-09-23T14:41:26.576Z,100129.09
2022-09-23T14:43:59.275Z,100122.16
2022-09-23T14:46:30.053Z,100127.69
2022-09-23T14:49:05.990Z,100122.00
2022-09-23T14:51:49.273Z,100118.06
2022-09-23T14:54:36.150Z,100111.81
2022-09-23T14:57:26.777Z,100132.97
2022-09-23T15:00:00.330Z,100130.41
2022-09-23T15:02:35.287Z,100118.59
2022-09-23T15:05:20.637Z,100129.56
2022-09-23T15:07:52.562Z,100116.56
2022-09-23T15:10:24.798Z,100118.97
2022-09-23T15:13:03.368Z,100115.88
2022-09-23T15:15:32.521Z,100123.16
2022-09-23T15:18:07.921Z,100124.69
2022-09-23T15:20:37.706Z,100126.97
2022-09-23T15:23:06.833Z,100123.09
2022-09-23T15:25:41.146Z,100126.59
2022-09-23T15:28:23.730Z,100122.63
2022-09-23T15:30:53.622Z,100131.84
2022-09-23T15:33:27.956Z,100116.56
2022-09-23T15:35:57.247Z,100133.78
2022-09-23T15:38:26.945Z,100134.72
2022-09-23T15:40:56.439Z,100132.34
2022-09-23T15:43:27.247Z,100139.81
2022-09-23T15:45:58.808Z,100136.44
2022-09-23T15:48:36.441Z,100122.19
2022-09-23T15:51:08.422Z,100140.56
2022-09-23T15:53:38.398Z,100132.44
2022-09-23T15:56:07.715Z,100142.53
2022-09-23T15:58:37.873Z,100134.09
2022-09-23T16:01:07.861Z,100132.25
2022-09-23T16:03:36.674Z,100141.84
2022-09-23T16:06:06.390Z,100146.47
2022-09-23T16:08:35.401Z,100150.84
2022-09-23T16:11:06.188Z,100146.66
2022-09-23T16:13:35.584Z,100154.13
2022-09-23T16:16:07.965Z,100153.03
2022-09-23T16:18:38.303Z,100150.50
2022-09-23T16:21:09.493Z,100158.38
2022-09-23T16:23:43.589Z,100158.13
2022-09-23T16:26:17.701Z,100158.31
2022-09-23T16:28:48.502Z,100149.22
2022-09-23T16:31:19.423Z,100152.09
2022-09-23T16:33:51.401Z,100156.22
2022-09-23T16:36:26.039Z,100164.06
2022-09-23T16:38:56.881Z,100144.41
2022-09-23T16:41:27.853Z,100140.59
2022-09-23T16:43:57.682Z,100156.66
2022-09-23T16:46:31.543Z,100154.25
2022-09-23T16:49:01.242Z,100147.72
2022-09-23T16:51:36.351Z,100168.34
2022-09-23T16:54:11.337Z,100157.78
2022-09-23T16:56:45.111Z,100164.81
2022-09-23T16:59:14.802Z,100000.19
2022-09-23T17:02:03.975Z,100145.06
2022-09-23T17:04:33.817Z,100138.38
2022-09-23T17:07:03.376Z,100154.13
2022-09-23T17:09:33.502Z,100165.38
2022-09-23T17:12:13.213Z,100162.44
2022-09-23T17:14:45.568Z,100164.38
2022-09-23T17:17:16.154Z,100167.16
2022-09-23T17:19:45.299Z,100166.44
2022-09-23T17:22:14.884Z,100160.00
2022-09-23T17:24:44.342Z,100168.16
2022-09-23T17:27:15.973Z,100172.72
2022-09-23T17:29:45.552Z,100169.16
2022-09-23T17:32:16.115Z,100159.19
2022-09-23T17:34:45.721Z,100138.38
2022-09-23T17:37:14.935Z,100152.03
2022-09-23T17:39:44.167Z,100159.72
2022-09-23T17:42:15.436Z,100144.84
2022-09-23T17:44:44.641Z,100169.19
2022-09-23T17:47:15.107Z,100165.91
2022-09-23T17:49:47.023Z,100146.72
2022-09-23T17:52:16.618Z,100164.34
2022-09-23T17:54:46.392Z,100156.53
2022-09-23T17:57:16.348Z,100126.25
2022-09-23T17:59:45.336Z,100141.25
2022-09-23T18:02:15.975Z,100152.13
2022-09-23T18:04:46.160Z,100151.75
2022-09-23T18:07:19.009Z,100155.81
2022-09-23T18:09:48.102Z,100158.69
2022-09-23T18:12:17.704Z,100153.47
2022-09-23T18:14:47.923Z,100116.19
2022-09-23T18:17:18.921Z,100131.44
2022-09-23T18:19:49.428Z,100160.03
2022-09-23T18:22:19.065Z,100129.03
2022-09-23T18:24:48.469Z,100153.22
2022-09-23T18:27:17.770Z,100153.72
2022-09-23T18:29:47.138Z,100135.28
2022-09-23T18:32:17.028Z,100141.63
2022-09-23T18:34:47.936Z,100148.03
2022-09-23T18:37:17.231Z,100066.50
2022-09-23T18:39:48.740Z,100148.41
2022-09-23T18:42:18.663Z,100143.81
2022-09-23T18:44:50.029Z,100139.69
2022-09-23T18:47:33.437Z,100139.91
2022-09-23T18:50:21.490Z,100129.03
2022-09-23T18:52:50.779Z,100143.81
2022-09-23T18:55:20.294Z,100133.38
2022-09-23T18:57:49.290Z,100138.81
2022-09-23T19:00:18.584Z,100144.19
2022-09-23T19:02:48.393Z,100133.38
2022-09-23T19:05:19.196Z,100131.47
2022-09-23T19:07:48.115Z,100138.72
2022-09-23T19:10:17.122Z,100136.41
2022-09-23T19:12:47.089Z,100143.91
2022-09-23T19:15:16.215Z,100140.13
2022-09-23T19:17:45.445Z,100136.50
2022-09-23T19:20:14.488Z,100127.06
2022-09-23T19:22:48.469Z,100131.44
2022-09-23T19:25:17.549Z,100135.91
2022-09-23T19:27:46.434Z,100122.94
2022-09-23T19:30:16.288Z,100064.38
2022-09-23T19:32:46.100Z,100124.59
2022-09-23T19:35:16.181Z,100123.44
2022-09-23T19:37:46.191Z,100114.97
2022-09-23T19:40:18.112Z,100128.03
2022-09-23T19:42:47.506Z,100115.91
2022-09-23T19:45:17.453Z,100117.63
2022-09-23T19:47:46.492Z,100114.72
2022-09-23T19:50:16.149Z,100111.75
2022-09-23T19:52:45.438Z,100113.97
2022-09-23T19:55:15.021Z,100115.25
2022-09-23T19:57:45.235Z,100108.63
2022-09-23T20:00:16.339Z,100035.97
2022-09-23T20:02:45.625Z,100122.19
2022-09-23T20:05:18.458Z,100103.88
2022-09-23T20:07:49.704Z,100118.53
2022-09-23T20:10:18.648Z,100104.06
2022-09-23T20:12:50.191Z,100113.84
2022-09-23T20:15:19.792Z,100104.72
2022-09-23T20:17:49.298Z,100104.31
2022-09-23T20:20:18.438Z,100105.53
2022-09-23T20:22:48.202Z,100115.06
2022-09-23T20:25:17.205Z,100095.31
2022-09-23T20:27:52.791Z,100097.19
2022-09-23T20:30:22.537Z,100098.59
2022-09-23T20:32:51.316Z,100108.31
2022-09-23T20:35:21.792Z,100069.41
2022-09-23T20:37:52.107Z,100108.84
2022-09-23T20:40:23.077Z,100107.69
2022-09-23T20:42:53.839Z,100096.78
2022-09-23T20:45:23.182Z,100100.25
2022-09-23T20:47:52.060Z,100103.09
2022-09-23T20:50:21.067Z,100108.88
2022-09-23T20:52:50.500Z,100101.41
2022-09-23T20:55:19.680Z,100097.03
2022-09-23T20:57:49.672Z,100100.34
2022-09-23T21:00:19.949Z,100096.88
2022-09-23T21:02:49.232Z,100098.44
2022-09-23T21:05:18.554Z,100097.09
2022-09-23T21:07:47.490Z,100091.38
2022-09-23T21:10:16.487Z,100091.19
2022-09-23T21:12:50.516Z,100092.78
2022-09-23T21:15:23.026Z,100103.56
2022-09-23T21:17:51.574Z,100092.44
2022-09-23T21:20:20.677Z,100097.03
2022-09-23T21:22:50.690Z,100092.91
2022-09-23T21:25:28.967Z,100074.75
2022-09-23T21:27:59.039Z,100049.44
2022-09-23T21:30:29.146Z,100068.53
2022-09-23T21:32:59.553Z,100087.09
2022-09-23T21:35:28.399Z,100088.13
2022-09-23T21:37:57.241Z,100084.16
2022-09-23T21:40:43.601Z,100085.38
2022-09-23T21:43:12.533Z,100075.25
2022-09-23T21:45:43.090Z,100079.69
2022-09-23T21:48:12.005Z,100086.72
2022-09-23T21:50:41.116Z,100067.88
2022-09-23T21:53:09.914Z,100088.53
2022-09-23T21:55:38.731Z,100083.91
2022-09-23T21:58:07.529Z,100083.16
2022-09-23T22:00:36.338Z,100056.31
2022-09-23T22:03:06.954Z,100089.72
2022-09-23T22:05:44.234Z,100086.34
2022-09-23T22:08:13.096Z,100077.34
2022-09-23T22:10:45.324Z,100082.22
2022-09-23T22:13:14.132Z,100085.56
2022-09-23T22:15:43.915Z,100091.72
2022-09-23T22:18:14.627Z,100081.41
2022-09-23T22:20:43.832Z,100061.63
2022-09-23T22:23:15.137Z,100077.59
2022-09-23T22:25:44.322Z,100077.38
2022-09-23T22:28:27.197Z,100064.81
2022-09-23T22:31:28.065Z,100089.53
2022-09-23T22:33:58.208Z,100069.56
2022-09-23T22:36:27.262Z,100090.38
2022-09-23T22:38:59.170Z,100086.94
2022-09-23T22:41:28.409Z,100075.19
2022-09-23T22:43:58.555Z,100081.72
2022-09-23T22:46:28.115Z,100063.34
2022-09-23T22:48:59.442Z,100076.16
2022-09-23T22:51:29.089Z,100076.41
2022-09-23T22:53:58.165Z,100070.22
2022-09-23T22:56:26.826Z,100073.56
2022-09-23T22:58:57.062Z,100063.34
2022-09-23T23:01:26.423Z,100052.97
2022-09-23T23:03:56.788Z,100077.75
2022-09-23T23:06:27.435Z,100074.22
2022-09-23T23:08:59.605Z,100060.44
2022-09-23T23:11:30.424Z,100058.69
2022-09-23T23:14:01.407Z,100072.81
2022-09-23T23:16:33.920Z,100064.81
2022-09-23T23:19:06.737Z,100036.06
2022-09-23T23:21:37.924Z,100062.56
2022-09-23T23:24:07.285Z,99998.63
2022-09-23T23:26:35.931Z,100069.34
2022-09-23T23:29:04.973Z,100059.06
2022-09-23T23:31:33.798Z,100053.84
2022-09-23T23:34:02.842Z,100037.84
2022-09-23T23:36:32.226Z,100051.19
2022-09-23T23:39:02.775Z,100044.59
2022-09-23T23:41:31.693Z,100032.94
2022-09-23T23:44:01.609Z,100022.38
2022-09-23T23:46:31.995Z,100052.81
2022-09-23T23:49:01.059Z,100054.78
2022-09-23T23:51:30.078Z,100054.81
2022-09-23T23:54:00.915Z,100049.34
2022-09-23T23:56:32.056Z,100042.13
2022-09-23T23:59:03.526Z,100041.59
